sensor_id;sensor_type;location;lat;lon;timestamp;pressure;altitude;pressure_sealevel;temperature;humidity
62462;BME280;48511;38.664;-9.202;2023-01-28T00:00:41;49968.84;;;-146.63;53.83
62462;BME280;48511;38.664;-9.202;2023-01-28T00:02:42;49933.31;;;-146.63;53.50
62462;BME280;48511;38.664;-9.202;2023-01-28T00:04:43;49925.41;;;-146.63;52.90
62462;BME280;48511;38.664;-9.202;2023-01-28T00:06:44;49945.16;;;-146.63;53.10
62462;BME280;48511;38.664;-9.202;2023-01-28T00:08:44;49953.06;;;-146.63;53.01
62462;BME280;48511;38.664;-9.202;2023-01-28T00:10:45;49960.94;;;-146.63;52.93
62462;BME280;48511;38.664;-9.202;2023-01-28T00:12:46;49935.28;;;-146.63;53.19
62462;BME280;48511;38.664;-9.202;2023-01-28T00:14:47;49915.56;;;-146.63;53.39
62462;BME280;48511;38.664;-9.202;2023-01-28T00:16:47;49943.19;;;-146.63;53.37
62462;BME280;48511;38.664;-9.202;2023-01-28T00:18:48;49925.41;;;-146.63;53.63
62462;BME280;48511;38.664;-9.202;2023-01-28T00:20:59;49937.25;;;-146.63;53.84
62462;BME280;48511;38.664;-9.202;2023-01-28T00:23:00;49988.59;;;-146.63;53.68
62462;BME280;48511;38.664;-9.202;2023-01-28T00:25:01;49925.41;;;-146.63;53.83
62462;BME280;48511;38.664;-9.202;2023-01-28T00:27:02;49947.13;;;-146.63;54.37
62462;BME280;48511;38.664;-9.202;2023-01-28T00:29:03;49923.44;;;-146.63;54.30
62462;BME280;48511;38.664;-9.202;2023-01-28T00:31:08;49957.00;;;-146.63;54.48
62462;BME280;48511;38.664;-9.202;2023-01-28T00:33:09;49933.31;;;-146.63;54.64
62462;BME280;48511;38.664;-9.202;2023-01-28T00:35:10;49972.78;;;-146.63;54.74
62462;BME280;48511;38.664;-9.202;2023-01-28T00:37:11;49937.25;;;-146.63;54.37
62462;BME280;48511;38.664;-9.202;2023-01-28T00:39:14;49933.31;;;-146.63;54.57
62462;BME280;48511;38.664;-9.202;2023-01-28T00:41:17;49966.88;;;-146.63;54.23
62462;BME280;48511;38.664;-9.202;2023-01-28T00:43:21;49984.63;;;-146.63;54.63
62462;BME280;48511;38.664;-9.202;2023-01-28T00:45:22;49957.00;;;-146.63;54.62
62462;BME280;48511;38.664;-9.202;2023-01-28T00:47:22;49968.84;;;-146.63;55.09
62462;BME280;48511;38.664;-9.202;2023-01-28T00:49:23;49988.59;;;-146.63;54.91
62462;BME280;48511;38.664;-9.202;2023-01-28T00:51:24;49943.19;;;-146.63;55.47
62462;BME280;48511;38.664;-9.202;2023-01-28T00:53:25;49945.16;;;-146.63;56.02
62462;BME280;48511;38.664;-9.202;2023-01-28T00:55:26;49929.38;;;-146.63;56.19
62462;BME280;48511;38.664;-9.202;2023-01-28T00:57:27;49996.47;;;-146.63;56.10
62462;BME280;48511;38.664;-9.202;2023-01-28T00:59:28;49976.75;;;-146.63;56.03
62462;BME280;48511;38.664;-9.202;2023-01-28T01:01:29;49966.88;;;-146.63;56.08
62462;BME280;48511;38.664;-9.202;2023-01-28T01:03:30;49955.03;;;-146.63;56.28
62462;BME280;48511;38.664;-9.202;2023-01-28T01:05:30;49937.25;;;-146.63;56.58
62462;BME280;48511;38.664;-9.202;2023-01-28T01:07:34;49962.91;;;-146.63;56.47
62462;BME280;48511;38.664;-9.202;2023-01-28T01:09:40;49960.94;;;-146.63;56.55
62462;BME280;48511;38.664;-9.202;2023-01-28T01:11:41;49915.56;;;-146.63;56.70
62462;BME280;48511;38.664;-9.202;2023-01-28T01:13:42;49953.06;;;-146.63;56.74
62462;BME280;48511;38.664;-9.202;2023-01-28T01:15:43;49945.16;;;-146.63;56.80
62462;BME280;48511;38.664;-9.202;2023-01-28T01:17:47;49935.28;;;-146.63;56.63
62462;BME280;48511;38.664;-9.202;2023-01-28T01:19:48;49972.78;;;-146.63;56.98
62462;BME280;48511;38.664;-9.202;2023-01-28T01:21:49;49951.09;;;-146.63;56.92
62462;BME280;48511;38.664;-9.202;2023-01-28T01:23:51;49953.06;;;-146.63;56.77
62462;BME280;48511;38.664;-9.202;2023-01-28T01:25:52;49943.19;;;-146.63;56.92
62462;BME280;48511;38.664;-9.202;2023-01-28T01:27:52;49929.38;;;-146.63;56.62
62462;BME280;48511;38.664;-9.202;2023-01-28T01:29:53;49937.25;;;-146.63;56.56
62462;BME280;48511;38.664;-9.202;2023-01-28T01:31:54;49917.53;;;-146.63;56.26
62462;BME280;48511;38.664;-9.202;2023-01-28T01:33:54;49972.78;;;-146.63;55.86
62462;BME280;48511;38.664;-9.202;2023-01-28T01:35:56;49929.38;;;-146.63;55.57
62462;BME280;48511;38.664;-9.202;2023-01-28T01:37:57;49909.63;;;-146.63;55.25
62462;BME280;48511;38.664;-9.202;2023-01-28T01:39:57;49937.25;;;-146.63;54.77
62462;BME280;48511;38.664;-9.202;2023-01-28T01:41:58;49941.22;;;-146.63;54.55
62462;BME280;48511;38.664;-9.202;2023-01-28T01:44:01;49968.84;;;-146.63;54.12
62462;BME280;48511;38.664;-9.202;2023-01-28T01:46:03;49976.75;;;-146.63;54.32
62462;BME280;48511;38.664;-9.202;2023-01-28T01:48:24;49962.91;;;-146.63;53.89
62462;BME280;48511;38.664;-9.202;2023-01-28T01:50:54;49974.75;;;-146.63;53.53
62462;BME280;48511;38.664;-9.202;2023-01-28T01:53:03;49925.41;;;-146.63;53.36
62462;BME280;48511;38.664;-9.202;2023-01-28T01:55:11;49972.78;;;-146.63;53.20
62462;BME280;48511;38.664;-9.202;2023-01-28T01:57:15;49929.38;;;-146.63;52.99
62462;BME280;48511;38.664;-9.202;2023-01-28T01:59:20;49947.13;;;-146.63;53.21
62462;BME280;48511;38.664;-9.202;2023-01-28T02:01:26;49925.41;;;-146.63;52.80
62462;BME280;48511;38.664;-9.202;2023-01-28T02:05:59;49960.94;;;-146.63;53.27
62462;BME280;48511;38.664;-9.202;2023-01-28T02:07:59;49972.78;;;-146.63;52.80
62462;BME280;48511;38.664;-9.202;2023-01-28T02:10:19;49958.97;;;-146.63;53.04
62462;BME280;48511;38.664;-9.202;2023-01-28T02:12:23;49929.38;;;-146.63;53.09
62462;BME280;48511;38.664;-9.202;2023-01-28T02:14:30;49921.47;;;-146.63;53.12
62462;BME280;48511;38.664;-9.202;2023-01-28T02:16:32;49937.25;;;-146.63;53.25
62462;BME280;48511;38.664;-9.202;2023-01-28T02:18:33;49915.56;;;-146.63;53.33
62462;BME280;48511;38.664;-9.202;2023-01-28T02:25:39;49960.94;;;-146.63;53.06
62462;BME280;48511;38.664;-9.202;2023-01-28T02:30:15;49927.41;;;-146.63;53.09
62462;BME280;48511;38.664;-9.202;2023-01-28T02:35:11;49968.84;;;-146.63;53.42
62462;BME280;48511;38.664;-9.202;2023-01-28T02:37:22;49941.22;;;-146.63;53.83
62462;BME280;48511;38.664;-9.202;2023-01-28T02:39:32;49945.16;;;-146.63;54.19
62462;BME280;48511;38.664;-9.202;2023-01-28T02:41:40;49968.84;;;-146.63;54.38
62462;BME280;48511;38.664;-9.202;2023-01-28T02:43:45;49972.78;;;-146.63;54.61
62462;BME280;48511;38.664;-9.202;2023-01-28T02:45:46;49962.91;;;-146.63;54.85
62462;BME280;48511;38.664;-9.202;2023-01-28T02:48:05;49907.66;;;-146.63;55.05
62462;BME280;48511;38.664;-9.202;2023-01-28T02:50:10;49933.31;;;-146.63;55.08
62462;BME280;48511;38.664;-9.202;2023-01-28T02:54:36;49943.19;;;-146.63;55.39
62462;BME280;48511;38.664;-9.202;2023-01-28T02:56:47;49941.22;;;-146.63;55.97
62462;BME280;48511;38.664;-9.202;2023-01-28T03:05:29;49943.19;;;-146.63;57.09
62462;BME280;48511;38.664;-9.202;2023-01-28T03:07:34;49955.03;;;-146.63;57.37
62462;BME280;48511;38.664;-9.202;2023-01-28T03:09:37;49913.59;;;-146.63;57.33
62462;BME280;48511;38.664;-9.202;2023-01-28T03:11:41;49921.47;;;-146.63;57.34
62462;BME280;48511;38.664;-9.202;2023-01-28T03:14:01;49958.97;;;-146.63;57.67
62462;BME280;48511;38.664;-9.202;2023-01-28T03:16:20;49947.13;;;-146.63;58.01
62462;BME280;48511;38.664;-9.202;2023-01-28T03:18:44;50000.44;;;-146.63;58.45
62462;BME280;48511;38.664;-9.202;2023-01-28T03:21:09;49964.91;;;-146.63;58.52
62462;BME280;48511;38.664;-9.202;2023-01-28T03:24:22;49957.00;;;-146.63;59.16
62462;BME280;48511;38.664;-9.202;2023-01-28T03:26:18;49945.16;;;-146.63;59.37
62462;BME280;48511;38.664;-9.202;2023-01-28T03:28:41;49949.09;;;-146.63;59.52
62462;BME280;48511;38.664;-9.202;2023-01-28T03:31:09;49941.22;;;-146.63;59.91
62462;BME280;48511;38.664;-9.202;2023-01-28T03:33:34;49968.84;;;-146.63;60.41
62462;BME280;48511;38.664;-9.202;2023-01-28T03:35:54;49949.09;;;-146.63;60.79
62462;BME280;48511;38.664;-9.202;2023-01-28T03:38:13;49964.91;;;-146.63;60.76
62462;BME280;48511;38.664;-9.202;2023-01-28T03:40:21;49943.19;;;-146.63;61.00
62462;BME280;48511;38.664;-9.202;2023-01-28T03:42:22;49958.97;;;-146.63;60.81
62462;BME280;48511;38.664;-9.202;2023-01-28T03:44:43;49968.84;;;-146.63;60.54
62462;BME280;48511;38.664;-9.202;2023-01-28T03:46:54;49939.25;;;-146.63;60.24
62462;BME280;48511;38.664;-9.202;2023-01-28T03:48:54;49933.31;;;-146.63;59.72
62462;BME280;48511;38.664;-9.202;2023-01-28T03:50:55;49935.28;;;-146.63;59.65
62462;BME280;48511;38.664;-9.202;2023-01-28T03:52:58;49935.28;;;-146.63;58.98
62462;BME280;48511;38.664;-9.202;2023-01-28T03:55:26;49962.91;;;-146.63;58.63
62462;BME280;48511;38.664;-9.202;2023-01-28T03:57:27;49927.41;;;-146.63;58.42
62462;BME280;48511;38.664;-9.202;2023-01-28T03:59:32;49945.16;;;-146.63;57.98
62462;BME280;48511;38.664;-9.202;2023-01-28T04:01:33;49933.31;;;-146.63;57.58
62462;BME280;48511;38.664;-9.202;2023-01-28T04:03:34;49964.91;;;-146.63;57.54
62462;BME280;48511;38.664;-9.202;2023-01-28T04:05:39;49935.28;;;-146.63;56.88
62462;BME280;48511;38.664;-9.202;2023-01-28T04:07:40;49927.41;;;-146.63;56.69
62462;BME280;48511;38.664;-9.202;2023-01-28T04:10:13;49974.75;;;-146.63;56.20
62462;BME280;48511;38.664;-9.202;2023-01-28T04:12:24;49925.41;;;-146.63;55.92
62462;BME280;48511;38.664;-9.202;2023-01-28T04:14:26;49935.28;;;-146.63;56.08
62462;BME280;48511;38.664;-9.202;2023-01-28T04:16:32;49960.94;;;-146.63;55.97
62462;BME280;48511;38.664;-9.202;2023-01-28T04:18:33;49953.06;;;-146.63;56.29
62462;BME280;48511;38.664;-9.202;2023-01-28T04:20:36;49945.16;;;-146.63;56.32
62462;BME280;48511;38.664;-9.202;2023-01-28T04:22:37;49949.09;;;-146.63;56.52
62462;BME280;48511;38.664;-9.202;2023-01-28T04:24:41;49982.66;;;-146.63;56.74
62462;BME280;48511;38.664;-9.202;2023-01-28T04:26:42;49958.97;;;-146.63;56.44
62462;BME280;48511;38.664;-9.202;2023-01-28T04:28:43;49964.91;;;-146.63;56.00
62462;BME280;48511;38.664;-9.202;2023-01-28T04:30:45;49913.59;;;-146.63;55.66
62462;BME280;48511;38.664;-9.202;2023-01-28T04:33:04;49925.41;;;-146.63;54.63
62462;BME280;48511;38.664;-9.202;2023-01-28T04:35:24;49945.16;;;-146.63;54.42
62462;BME280;48511;38.664;-9.202;2023-01-28T04:37:35;49962.91;;;-146.63;54.51
62462;BME280;48511;38.664;-9.202;2023-01-28T04:40:02;49893.84;;;-146.63;54.33
62462;BME280;48511;38.664;-9.202;2023-01-28T04:42:22;49945.16;;;-146.63;54.27
62462;BME280;48511;38.664;-9.202;2023-01-28T04:44:41;49931.34;;;-146.63;54.37
62462;BME280;48511;38.664;-9.202;2023-01-28T04:47:09;49953.06;;;-146.63;54.37
62462;BME280;48511;38.664;-9.202;2023-01-28T04:49:28;49966.88;;;-146.63;54.16
62462;BME280;48511;38.664;-9.202;2023-01-28T04:52:01;49943.19;;;-146.63;54.19
62462;BME280;48511;38.664;-9.202;2023-01-28T04:54:25;49953.06;;;-146.63;54.54
62462;BME280;48511;38.664;-9.202;2023-01-28T04:56:29;49937.25;;;-146.63;54.49
62462;BME280;48511;38.664;-9.202;2023-01-28T04:58:30;49915.56;;;-146.63;54.42
62462;BME280;48511;38.664;-9.202;2023-01-28T05:00:35;49962.91;;;-146.63;54.19
62462;BME280;48511;38.664;-9.202;2023-01-28T05:02:37;49947.13;;;-146.63;54.28
62462;BME280;48511;38.664;-9.202;2023-01-28T05:04:38;49968.84;;;-146.63;54.48
62462;BME280;48511;38.664;-9.202;2023-01-28T05:06:41;49968.84;;;-146.63;54.31
62462;BME280;48511;38.664;-9.202;2023-01-28T05:08:47;49978.72;;;-146.63;54.36
62462;BME280;48511;38.664;-9.202;2023-01-28T05:10:49;49899.75;;;-146.63;53.80
62462;BME280;48511;38.664;-9.202;2023-01-28T05:12:50;49949.09;;;-146.63;52.56
62462;BME280;48511;38.664;-9.202;2023-01-28T05:14:52;49992.53;;;-146.63;52.34
62462;BME280;48511;38.664;-9.202;2023-01-28T05:16:54;49915.56;;;-146.63;52.20
62462;BME280;48511;38.664;-9.202;2023-01-28T05:18:55;49953.06;;;-146.63;52.20
62462;BME280;48511;38.664;-9.202;2023-01-28T05:20:57;49929.38;;;-146.63;52.13
62462;BME280;48511;38.664;-9.202;2023-01-28T05:22:58;49945.16;;;-146.63;52.29
62462;BME280;48511;38.664;-9.202;2023-01-28T05:25:07;49913.59;;;-146.63;51.86
62462;BME280;48511;38.664;-9.202;2023-01-28T05:27:08;49949.09;;;-146.63;52.07
62462;BME280;48511;38.664;-9.202;2023-01-28T05:29:09;49945.16;;;-146.63;52.10
62462;BME280;48511;38.664;-9.202;2023-01-28T05:31:10;49953.06;;;-146.63;51.95
62462;BME280;48511;38.664;-9.202;2023-01-28T05:33:12;49905.69;;;-146.63;52.33
62462;BME280;48511;38.664;-9.202;2023-01-28T05:35:12;49941.22;;;-146.63;52.63
62462;BME280;48511;38.664;-9.202;2023-01-28T05:37:13;49937.25;;;-146.63;52.64
62462;BME280;48511;38.664;-9.202;2023-01-28T05:39:14;49968.84;;;-146.63;52.55
62462;BME280;48511;38.664;-9.202;2023-01-28T05:41:16;49957.00;;;-146.63;52.59
62462;BME280;48511;38.664;-9.202;2023-01-28T05:43:20;49925.41;;;-146.63;52.18
62462;BME280;48511;38.664;-9.202;2023-01-28T05:45:39;49913.59;;;-146.63;52.41
62462;BME280;48511;38.664;-9.202;2023-01-28T05:47:46;49968.84;;;-146.63;52.67
62462;BME280;48511;38.664;-9.202;2023-01-28T05:49:58;49925.41;;;-146.63;52.94
62462;BME280;48511;38.664;-9.202;2023-01-28T05:52:05;49921.47;;;-146.63;52.64
62462;BME280;48511;38.664;-9.202;2023-01-28T05:54:07;49945.16;;;-146.63;52.41
62462;BME280;48511;38.664;-9.202;2023-01-28T05:56:08;49955.03;;;-146.63;52.23
62462;BME280;48511;38.664;-9.202;2023-01-28T05:58:10;49897.78;;;-146.63;52.25
62462;BME280;48511;38.664;-9.202;2023-01-28T06:00:11;49951.09;;;-146.63;52.34
62462;BME280;48511;38.664;-9.202;2023-01-28T06:02:15;49960.94;;;-146.63;52.34
62462;BME280;48511;38.664;-9.202;2023-01-28T06:04:16;49941.22;;;-146.63;52.61
62462;BME280;48511;38.664;-9.202;2023-01-28T06:06:18;49980.69;;;-146.63;52.55
62462;BME280;48511;38.664;-9.202;2023-01-28T06:08:20;49972.78;;;-146.63;52.63
62462;BME280;48511;38.664;-9.202;2023-01-28T06:10:21;49925.41;;;-146.63;52.19
62462;BME280;48511;38.664;-9.202;2023-01-28T06:12:22;49949.09;;;-146.63;51.92
62462;BME280;48511;38.664;-9.202;2023-01-28T06:14:43;49931.34;;;-146.63;51.72
62462;BME280;48511;38.664;-9.202;2023-01-28T06:17:06;49939.25;;;-146.63;51.64
62462;BME280;48511;38.664;-9.202;2023-01-28T06:19:30;49960.94;;;-146.63;51.60
62462;BME280;48511;38.664;-9.202;2023-01-28T06:21:31;49933.31;;;-146.63;51.56
62462;BME280;48511;38.664;-9.202;2023-01-28T06:23:32;49937.25;;;-146.63;51.63
62462;BME280;48511;38.664;-9.202;2023-01-28T06:25:33;49907.66;;;-146.63;51.77
62462;BME280;48511;38.664;-9.202;2023-01-28T06:27:39;49949.09;;;-146.63;51.71
62462;BME280;48511;38.664;-9.202;2023-01-28T06:29:40;49947.13;;;-146.63;51.68
62462;BME280;48511;38.664;-9.202;2023-01-28T06:31:41;49933.31;;;-146.63;51.70
62462;BME280;48511;38.664;-9.202;2023-01-28T06:33:44;49968.84;;;-146.63;51.83
62462;BME280;48511;38.664;-9.202;2023-01-28T06:35:45;49945.16;;;-146.63;51.98
62462;BME280;48511;38.664;-9.202;2023-01-28T06:37:46;49943.19;;;-146.63;52.03
62462;BME280;48511;38.664;-9.202;2023-01-28T06:39:47;49933.31;;;-146.63;52.22
62462;BME280;48511;38.664;-9.202;2023-01-28T06:41:49;49945.16;;;-146.63;52.55
62462;BME280;48511;38.664;-9.202;2023-01-28T06:43:49;49947.13;;;-146.63;52.25
62462;BME280;48511;38.664;-9.202;2023-01-28T06:45:50;49925.41;;;-146.63;51.95
62462;BME280;48511;38.664;-9.202;2023-01-28T06:47:51;49943.19;;;-146.63;51.40
62462;BME280;48511;38.664;-9.202;2023-01-28T06:49:52;49917.53;;;-146.63;51.08
62462;BME280;48511;38.664;-9.202;2023-01-28T06:51:52;49943.19;;;-146.63;51.09
62462;BME280;48511;38.664;-9.202;2023-01-28T06:53:53;49927.41;;;-146.63;50.21
62462;BME280;48511;38.664;-9.202;2023-01-28T06:55:54;49941.22;;;-146.63;50.04
62462;BME280;48511;38.664;-9.202;2023-01-28T06:57:55;49960.94;;;-146.63;50.07
62462;BME280;48511;38.664;-9.202;2023-01-28T06:59:55;49953.06;;;-146.63;50.25
62462;BME280;48511;38.664;-9.202;2023-01-28T07:01:56;49968.84;;;-146.63;50.56
62462;BME280;48511;38.664;-9.202;2023-01-28T07:03:57;49953.06;;;-146.63;50.96
62462;BME280;48511;38.664;-9.202;2023-01-28T07:05:57;49947.13;;;-146.63;50.94
62462;BME280;48511;38.664;-9.202;2023-01-28T07:07:58;49953.06;;;-146.63;51.34
62462;BME280;48511;38.664;-9.202;2023-01-28T07:09:59;49953.06;;;-146.63;51.65
62462;BME280;48511;38.664;-9.202;2023-01-28T07:11:59;49929.38;;;-146.63;52.18
62462;BME280;48511;38.664;-9.202;2023-01-28T07:14:04;49937.25;;;-146.63;52.38
62462;BME280;48511;38.664;-9.202;2023-01-28T07:16:06;49937.25;;;-146.63;52.93
62462;BME280;48511;38.664;-9.202;2023-01-28T07:18:07;49972.78;;;-146.63;53.37
62462;BME280;48511;38.664;-9.202;2023-01-28T07:20:09;49949.09;;;-146.63;53.66
62462;BME280;48511;38.664;-9.202;2023-01-28T07:22:10;49919.50;;;-146.63;53.76
62462;BME280;48511;38.664;-9.202;2023-01-28T07:24:11;49964.91;;;-146.63;53.54
62462;BME280;48511;38.664;-9.202;2023-01-28T07:26:12;49933.31;;;-146.63;53.76
62462;BME280;48511;38.664;-9.202;2023-01-28T07:28:12;49951.09;;;-146.63;53.71
62462;BME280;48511;38.664;-9.202;2023-01-28T07:30:14;49960.94;;;-146.63;53.86
62462;BME280;48511;38.664;-9.202;2023-01-28T07:32:15;49972.78;;;-146.63;54.13
62462;BME280;48511;38.664;-9.202;2023-01-28T07:34:15;49951.09;;;-146.63;54.15
62462;BME280;48511;38.664;-9.202;2023-01-28T07:36:16;49958.97;;;-146.63;54.33
62462;BME280;48511;38.664;-9.202;2023-01-28T07:38:17;49945.16;;;-146.63;54.39
62462;BME280;48511;38.664;-9.202;2023-01-28T07:40:18;49897.78;;;-146.63;54.61
62462;BME280;48511;38.664;-9.202;2023-01-28T07:42:18;49927.41;;;-146.63;54.54
62462;BME280;48511;38.664;-9.202;2023-01-28T07:44:20;49931.34;;;-146.63;54.60
62462;BME280;48511;38.664;-9.202;2023-01-28T07:46:21;49903.72;;;-146.63;54.57
62462;BME280;48511;38.664;-9.202;2023-01-28T07:48:22;49955.03;;;-146.63;54.66
62462;BME280;48511;38.664;-9.202;2023-01-28T07:50:23;49968.84;;;-146.63;55.13
62462;BME280;48511;38.664;-9.202;2023-01-28T07:52:24;49968.84;;;-146.63;55.39
62462;BME280;48511;38.664;-9.202;2023-01-28T07:54:25;49968.84;;;-146.63;55.40
62462;BME280;48511;38.664;-9.202;2023-01-28T07:56:26;49945.16;;;-146.63;55.57
62462;BME280;48511;38.664;-9.202;2023-01-28T07:58:28;49941.22;;;-146.63;55.57
62462;BME280;48511;38.664;-9.202;2023-01-28T08:00:31;49917.53;;;-146.63;55.52
62462;BME280;48511;38.664;-9.202;2023-01-28T08:02:32;49949.09;;;-146.63;55.35
62462;BME280;48511;38.664;-9.202;2023-01-28T08:04:32;49913.59;;;-146.63;55.46
62462;BME280;48511;38.664;-9.202;2023-01-28T08:06:33;49921.47;;;-146.63;55.68
62462;BME280;48511;38.664;-9.202;2023-01-28T08:08:37;49970.81;;;-146.63;55.75
62462;BME280;48511;38.664;-9.202;2023-01-28T08:10:38;49929.38;;;-146.63;55.81
62462;BME280;48511;38.664;-9.202;2023-01-28T08:12:38;49962.91;;;-146.63;56.05
62462;BME280;48511;38.664;-9.202;2023-01-28T08:14:39;49933.31;;;-146.63;55.99
62462;BME280;48511;38.664;-9.202;2023-01-28T08:16:40;49953.06;;;-146.63;55.82
62462;BME280;48511;38.664;-9.202;2023-01-28T08:18:41;49972.78;;;-146.63;55.67
62462;BME280;48511;38.664;-9.202;2023-01-28T08:20:42;49909.63;;;-146.63;55.76
62462;BME280;48511;38.664;-9.202;2023-01-28T08:22:44;49913.59;;;-146.63;55.84
62462;BME280;48511;38.664;-9.202;2023-01-28T08:24:45;49947.13;;;-146.63;55.87
62462;BME280;48511;38.664;-9.202;2023-01-28T08:26:47;49953.06;;;-146.63;55.93
62462;BME280;48511;38.664;-9.202;2023-01-28T08:28:48;49943.19;;;-146.63;55.49
62462;BME280;48511;38.664;-9.202;2023-01-28T08:30:48;49941.22;;;-146.63;54.75
62462;BME280;48511;38.664;-9.202;2023-01-28T08:32:49;49949.09;;;-146.63;54.37
62462;BME280;48511;38.664;-9.202;2023-01-28T08:34:50;49923.44;;;-146.63;54.10
62462;BME280;48511;38.664;-9.202;2023-01-28T08:36:50;49953.06;;;-146.63;53.93
62462;BME280;48511;38.664;-9.202;2023-01-28T08:38:52;49935.28;;;-146.63;53.75
62462;BME280;48511;38.664;-9.202;2023-01-28T08:40:55;49937.25;;;-146.63;53.70
62462;BME280;48511;38.664;-9.202;2023-01-28T08:42:57;49960.94;;;-146.63;53.37
62462;BME280;48511;38.664;-9.202;2023-01-28T08:44:58;49939.25;;;-146.63;52.98
62462;BME280;48511;38.664;-9.202;2023-01-28T08:46:59;49960.94;;;-146.63;52.42
62462;BME280;48511;38.664;-9.202;2023-01-28T08:48:59;49951.09;;;-146.63;52.50
62462;BME280;48511;38.664;-9.202;2023-01-28T08:51:00;49964.91;;;-146.63;52.28
62462;BME280;48511;38.664;-9.202;2023-01-28T08:53:07;49905.69;;;-146.63;51.86
62462;BME280;48511;38.664;-9.202;2023-01-28T08:55:08;49943.19;;;-146.63;51.66
62462;BME280;48511;38.664;-9.202;2023-01-28T08:57:08;49941.22;;;-146.63;51.40
62462;BME280;48511;38.664;-9.202;2023-01-28T08:59:10;49951.09;;;-146.63;50.94
62462;BME280;48511;38.664;-9.202;2023-01-28T09:01:11;49986.59;;;-146.63;51.22
62462;BME280;48511;38.664;-9.202;2023-01-28T09:03:12;49933.31;;;-146.63;50.59
62462;BME280;48511;38.664;-9.202;2023-01-28T09:05:12;49951.09;;;-146.63;50.18
62462;BME280;48511;38.664;-9.202;2023-01-28T09:07:14;49929.38;;;-146.63;49.81
62462;BME280;48511;38.664;-9.202;2023-01-28T09:09:15;49966.88;;;-146.63;49.87
62462;BME280;48511;38.664;-9.202;2023-01-28T09:11:15;49972.78;;;-146.63;49.64
62462;BME280;48511;38.664;-9.202;2023-01-28T09:13:16;49949.09;;;-146.63;49.67
62462;BME280;48511;38.664;-9.202;2023-01-28T09:15:17;49931.34;;;-146.63;49.35
62462;BME280;48511;38.664;-9.202;2023-01-28T09:17:19;49960.94;;;-146.63;49.06
62462;BME280;48511;38.664;-9.202;2023-01-28T09:19:20;49925.41;;;-146.63;48.74
62462;BME280;48511;38.664;-9.202;2023-01-28T09:21:20;49949.09;;;-146.63;48.77
62462;BME280;48511;38.664;-9.202;2023-01-28T09:23:21;49947.13;;;-146.63;48.79
62462;BME280;48511;38.664;-9.202;2023-01-28T09:25:22;49925.41;;;-146.63;47.67
62462;BME280;48511;38.664;-9.202;2023-01-28T09:27:22;49921.47;;;-146.63;47.48
62462;BME280;48511;38.664;-9.202;2023-01-28T09:29:23;49941.22;;;-146.63;46.41
62462;BME280;48511;38.664;-9.202;2023-01-28T09:31:24;49964.91;;;-146.63;46.24
62462;BME280;48511;38.664;-9.202;2023-01-28T09:33:25;49966.88;;;-146.63;45.98
62462;BME280;48511;38.664;-9.202;2023-01-28T09:35:26;49974.75;;;-146.63;45.97
62462;BME280;48511;38.664;-9.202;2023-01-28T09:37:26;49953.06;;;-146.63;45.39
62462;BME280;48511;38.664;-9.202;2023-01-28T09:39:27;49891.88;;;-146.63;46.06
62462;BME280;48511;38.664;-9.202;2023-01-28T09:41:56;49945.16;;;-146.63;45.85
62462;BME280;48511;38.664;-9.202;2023-01-28T09:44:14;49972.78;;;-146.63;44.88
62462;BME280;48511;38.664;-9.202;2023-01-28T09:46:18;49964.91;;;-146.63;45.00
62462;BME280;48511;38.664;-9.202;2023-01-28T09:48:22;49980.69;;;-146.63;45.11
62462;BME280;48511;38.664;-9.202;2023-01-28T09:50:35;49929.38;;;-146.63;44.01
62462;BME280;48511;38.664;-9.202;2023-01-28T09:52:38;49937.25;;;-146.63;43.59
62462;BME280;48511;38.664;-9.202;2023-01-28T09:54:45;49933.31;;;-146.63;43.60
62462;BME280;48511;38.664;-9.202;2023-01-28T09:56:47;49945.16;;;-146.63;43.84
62462;BME280;48511;38.664;-9.202;2023-01-28T09:58:53;49921.47;;;-146.63;43.57
62462;BME280;48511;38.664;-9.202;2023-01-28T10:16:41;49949.09;;;-146.63;43.08
62462;BME280;48511;38.664;-9.202;2023-01-28T10:18:51;49941.22;;;-146.63;43.46
62462;BME280;48511;38.664;-9.202;2023-01-28T10:21:00;49913.59;;;-146.63;42.68
62462;BME280;48511;38.664;-9.202;2023-01-28T10:25:21;49945.16;;;-146.63;42.62
62462;BME280;48511;38.664;-9.202;2023-01-28T10:27:27;49953.06;;;-146.63;43.00
62462;BME280;48511;38.664;-9.202;2023-01-28T10:29:32;49897.78;;;-146.63;43.38
62462;BME280;48511;38.664;-9.202;2023-01-28T10:31:35;49909.63;;;-146.63;43.84
62462;BME280;48511;38.664;-9.202;2023-01-28T10:33:39;49974.75;;;-146.63;43.00
62462;BME280;48511;38.664;-9.202;2023-01-28T10:35:41;49903.72;;;-146.63;42.70
62462;BME280;48511;38.664;-9.202;2023-01-28T10:37:43;49917.53;;;-146.63;43.34
62462;BME280;48511;38.664;-9.202;2023-01-28T10:39:44;49949.09;;;-146.63;43.75
62462;BME280;48511;38.664;-9.202;2023-01-28T10:41:45;49933.31;;;-146.63;43.48
62462;BME280;48511;38.664;-9.202;2023-01-28T10:43:46;49927.41;;;-146.63;42.72
62462;BME280;48511;38.664;-9.202;2023-01-28T10:46:07;49972.78;;;-146.63;42.79
62462;BME280;48511;38.664;-9.202;2023-01-28T10:48:52;49917.53;;;-146.63;42.59
62462;BME280;48511;38.664;-9.202;2023-01-28T10:50:56;49968.84;;;-146.63;42.17
62462;BME280;48511;38.664;-9.202;2023-01-28T10:53:01;49913.59;;;-146.63;41.61
62462;BME280;48511;38.664;-9.202;2023-01-28T10:55:04;49925.41;;;-146.63;42.40
62462;BME280;48511;38.664;-9.202;2023-01-28T10:57:09;49937.25;;;-146.63;42.29
62462;BME280;48511;38.664;-9.202;2023-01-28T10:59:19;49964.91;;;-146.63;41.88
62462;BME280;48511;38.664;-9.202;2023-01-28T11:01:20;49921.47;;;-146.63;41.82
62462;BME280;48511;38.664;-9.202;2023-01-28T11:03:22;49927.41;;;-146.63;41.44
62462;BME280;48511;38.664;-9.202;2023-01-28T11:05:28;49897.78;;;-146.63;41.54
62462;BME280;48511;38.664;-9.202;2023-01-28T11:07:30;49964.91;;;-146.63;41.13
62462;BME280;48511;38.664;-9.202;2023-01-28T11:09:34;49945.16;;;-146.63;41.51
62462;BME280;48511;38.664;-9.202;2023-01-28T11:11:35;49939.25;;;-146.63;41.34
62462;BME280;48511;38.664;-9.202;2023-01-28T11:13:49;49933.31;;;-146.63;40.53
62462;BME280;48511;38.664;-9.202;2023-01-28T11:15:57;49960.94;;;-146.63;40.81